createdAt,value
2023-01-19T00:01:31.811Z,24.13
2023-01-19T00:03:59.418Z,21.83
2023-01-19T00:06:29.096Z,22.75
2023-01-19T00:08:56.631Z,27.27
2023-01-19T00:11:24.179Z,22.70
2023-01-19T00:13:51.891Z,25.20
2023-01-19T00:16:22.919Z,26.85
2023-01-19T00:18:51.896Z,25.35
2023-01-19T00:21:20.127Z,27.23
2023-01-19T00:23:48.083Z,16.33
2023-01-19T00:26:16.416Z,28.00
2023-01-19T00:28:44.619Z,25.38
2023-01-19T00:31:12.242Z,31.25
2023-01-19T00:33:39.686Z,37.30
2023-01-19T00:36:07.230Z,34.15
2023-01-19T00:38:34.617Z,28.75
2023-01-19T00:41:01.693Z,24.65
2023-01-19T00:43:29.019Z,38.53
2023-01-19T00:45:56.108Z,38.13
2023-01-19T00:48:23.778Z,39.30
2023-01-19T00:50:50.877Z,31.17
2023-01-19T00:53:18.342Z,27.98
2023-01-19T00:55:45.308Z,29.42
2023-01-19T00:58:12.709Z,32.78
2023-01-19T01:00:39.863Z,27.55
2023-01-19T01:03:07.495Z,27.58
2023-01-19T01:05:34.771Z,26.00
2023-01-19T01:08:02.148Z,32.05
2023-01-19T01:10:29.699Z,42.50
2023-01-19T01:12:58.783Z,41.47
2023-01-19T01:15:27.667Z,43.13
2023-01-19T01:17:55.953Z,48.95
2023-01-19T01:20:27.143Z,40.20
2023-01-19T01:22:55.363Z,34.85
2023-01-19T01:25:25.053Z,41.30
2023-01-19T01:27:52.480Z,34.35
2023-01-19T01:30:20.812Z,35.25
2023-01-19T01:32:49.050Z,34.30
2023-01-19T01:35:16.971Z,37.42
2023-01-19T01:37:44.539Z,34.90
2023-01-19T01:40:13.631Z,39.45
2023-01-19T01:42:42.408Z,34.90
2023-01-19T01:45:32.718Z,44.47
2023-01-19T01:48:18.878Z,48.05
2023-01-19T01:51:16.857Z,43.92
2023-01-19T01:53:47.344Z,48.08
2023-01-19T01:56:19.844Z,51.50
2023-01-19T01:58:47.979Z,45.03
2023-01-19T02:01:34.310Z,41.33
2023-01-19T02:04:01.480Z,45.05
2023-01-19T02:06:29.484Z,46.75
2023-01-19T02:09:24.787Z,42.40
2023-01-19T02:12:11.304Z,46.40
2023-01-19T02:14:38.359Z,50.05
2023-01-19T02:17:06.967Z,46.17
2023-01-19T02:19:41.967Z,44.60
2023-01-19T02:22:35.996Z,46.45
2023-01-19T02:25:07.198Z,46.80
2023-01-19T02:27:36.973Z,43.42
2023-01-19T02:30:04.726Z,48.90
2023-01-19T02:32:32.007Z,48.85
2023-01-19T02:34:59.150Z,50.53
2023-01-19T02:37:30.176Z,43.60
2023-01-19T02:40:01.825Z,48.30
2023-01-19T02:42:39.048Z,56.42
2023-01-19T02:45:09.519Z,62.80
2023-01-19T02:47:43.085Z,61.22
2023-01-19T02:50:46.470Z,44.50
2023-01-19T02:53:16.416Z,39.97
2023-01-19T02:55:51.567Z,46.25
2023-01-19T02:58:30.091Z,37.47
2023-01-19T03:01:19.784Z,45.55
2023-01-19T03:04:01.891Z,42.50
2023-01-19T03:07:01.260Z,40.95
2023-01-19T03:10:07.695Z,39.13
2023-01-19T03:12:48.545Z,41.92
2023-01-19T03:15:23.388Z,41.33
2023-01-19T03:17:53.148Z,35.88
2023-01-19T03:20:25.385Z,40.20
2023-01-19T03:23:00.558Z,32.45
2023-01-19T03:25:33.257Z,39.05
2023-01-19T03:28:01.897Z,39.65
2023-01-19T03:30:34.884Z,35.83
2023-01-19T03:33:27.960Z,40.88
2023-01-19T03:36:03.673Z,38.53
2023-01-19T03:38:35.574Z,41.88
2023-01-19T03:41:09.229Z,38.33
2023-01-19T03:43:38.272Z,33.95
2023-01-19T03:46:07.543Z,33.90
2023-01-19T03:48:34.730Z,32.00
2023-01-19T03:51:08.328Z,35.22
2023-01-19T03:53:35.379Z,37.20
2023-01-19T03:56:03.645Z,34.65
2023-01-19T03:58:30.696Z,37.25
2023-01-19T04:00:58.306Z,39.72
2023-01-19T04:03:25.369Z,41.00
2023-01-19T04:05:52.751Z,37.70
2023-01-19T04:08:19.763Z,41.08
2023-01-19T04:10:47.129Z,42.97
2023-01-19T04:13:14.196Z,35.08
2023-01-19T04:15:41.646Z,39.47
2023-01-19T04:18:08.640Z,36.72
2023-01-19T04:20:36.044Z,33.15
2023-01-19T04:23:03.465Z,32.22
2023-01-19T04:25:31.258Z,33.80
2023-01-19T04:27:58.467Z,33.63
2023-01-19T04:30:27.467Z,34.20
2023-01-19T04:32:55.547Z,43.42
2023-01-19T04:35:23.682Z,40.00
2023-01-19T04:37:50.830Z,33.80
2023-01-19T04:40:18.232Z,37.35
2023-01-19T04:42:46.109Z,37.05
2023-01-19T04:45:14.374Z,45.28
2023-01-19T04:47:42.680Z,36.63
2023-01-19T04:50:11.426Z,42.03
2023-01-19T04:52:38.667Z,106.50
2023-01-19T04:55:06.848Z,333.33
2023-01-19T04:57:34.218Z,320.40
2023-01-19T05:00:01.902Z,525.28
2023-01-19T05:02:29.221Z,515.10
2023-01-19T05:04:56.603Z,403.15
2023-01-19T05:07:23.644Z,341.75
2023-01-19T05:09:51.274Z,168.43
2023-01-19T05:12:18.480Z,110.55
2023-01-19T05:14:46.167Z,85.00
2023-01-19T05:17:13.652Z,115.80
2023-01-19T05:19:41.260Z,116.43
2023-01-19T05:22:08.658Z,92.95
2023-01-19T05:24:36.119Z,41.55
2023-01-19T05:27:03.829Z,40.97
2023-01-19T05:29:31.189Z,37.80
2023-01-19T05:31:58.540Z,35.33
2023-01-19T05:34:25.812Z,35.00
2023-01-19T05:36:53.308Z,39.80
2023-01-19T05:39:20.763Z,37.03
2023-01-19T05:41:48.077Z,38.03
2023-01-19T05:44:15.714Z,38.45
2023-01-19T05:46:42.977Z,42.20
2023-01-19T05:49:12.877Z,37.65
2023-01-19T05:51:45.206Z,37.92
2023-01-19T05:54:15.381Z,52.53
2023-01-19T05:59:10.050Z,35.75
2023-01-19T06:01:39.868Z,38.25
2023-01-19T06:04:07.622Z,40.13
2023-01-19T06:06:34.592Z,87.38
2023-01-19T06:09:01.974Z,75.00
2023-01-19T06:11:29.079Z,64.65
2023-01-19T06:13:56.441Z,46.45
2023-01-19T06:16:23.530Z,53.65
2023-01-19T06:18:50.906Z,61.15
2023-01-19T06:21:18.001Z,48.67
2023-01-19T06:23:45.372Z,52.10
2023-01-19T06:26:13.549Z,37.10
2023-01-19T06:28:40.933Z,33.08
2023-01-19T06:31:08.006Z,48.45
2023-01-19T06:33:35.489Z,51.78
2023-01-19T06:36:02.581Z,57.55
2023-01-19T06:38:29.971Z,83.13
2023-01-19T06:41:03.294Z,69.55
2023-01-19T06:43:31.517Z,45.70
2023-01-19T06:46:00.570Z,76.93
2023-01-19T06:48:28.030Z,67.03
2023-01-19T06:50:58.465Z,153.90
2023-01-19T06:53:28.001Z,168.70
2023-01-19T06:56:02.464Z,77.97
2023-01-19T06:58:31.780Z,97.07
2023-01-19T07:01:03.769Z,70.32
2023-01-19T07:03:32.278Z,42.65
2023-01-19T07:06:02.385Z,64.28
2023-01-19T07:08:30.269Z,62.28
2023-01-19T07:11:25.599Z,36.30
2023-01-19T07:13:55.593Z,34.47
2023-01-19T07:16:23.716Z,29.03
2023-01-19T07:18:51.084Z,28.70
2023-01-19T07:21:19.275Z,28.35
2023-01-19T07:23:51.179Z,31.83
2023-01-19T07:26:21.724Z,97.88
2023-01-19T07:28:49.485Z,61.97
2023-01-19T07:31:17.906Z,30.02
2023-01-19T07:33:45.860Z,34.38
2023-01-19T07:36:13.637Z,29.17
2023-01-19T07:38:41.004Z,35.28
2023-01-19T07:41:10.172Z,44.42
2023-01-19T07:43:37.751Z,42.03
2023-01-19T07:46:06.408Z,46.38
2023-01-19T07:48:34.168Z,65.25
2023-01-19T07:51:11.723Z,104.88
2023-01-19T07:53:41.499Z,46.42
2023-01-19T07:56:10.176Z,39.63
2023-01-19T07:58:38.352Z,83.60
2023-01-19T08:01:10.391Z,90.13
2023-01-19T08:03:38.582Z,114.45
2023-01-19T08:06:06.733Z,49.83
2023-01-19T08:08:34.721Z,107.53
2023-01-19T08:11:01.792Z,53.60
2023-01-19T08:13:29.204Z,56.17
2023-01-19T08:15:56.318Z,57.70
2023-01-19T08:18:23.793Z,116.00
2023-01-19T08:20:51.084Z,103.63
2023-01-19T08:23:18.658Z,146.50
2023-01-19T08:25:46.071Z,78.40
2023-01-19T08:28:16.062Z,113.63
2023-01-19T08:30:44.951Z,44.85
2023-01-19T08:33:13.788Z,37.78
2023-01-19T08:35:42.605Z,32.72
2023-01-19T08:38:10.856Z,37.63
2023-01-19T08:40:40.284Z,39.42
2023-01-19T08:43:10.605Z,61.72
2023-01-19T08:45:46.565Z,97.97
2023-01-19T08:48:15.017Z,42.47
2023-01-19T08:50:42.031Z,43.92
2023-01-19T08:53:10.344Z,40.92
2023-01-19T08:55:37.647Z,34.53
2023-01-19T08:58:06.212Z,31.70
2023-01-19T09:00:34.446Z,35.45
2023-01-19T09:03:04.136Z,41.67
2023-01-19T09:05:35.677Z,33.58
2023-01-19T09:08:13.813Z,31.83
2023-01-19T09:10:46.546Z,155.20
2023-01-19T09:13:15.290Z,73.97
2023-01-19T09:15:43.557Z,88.40
2023-01-19T09:18:14.131Z,88.72
2023-01-19T09:20:42.899Z,102.47
2023-01-19T09:23:12.343Z,68.55
2023-01-19T09:25:40.499Z,40.38
2023-01-19T09:28:09.724Z,42.10
2023-01-19T09:30:38.633Z,47.73
2023-01-19T09:33:08.163Z,40.33
2023-01-19T09:35:35.318Z,36.92
2023-01-19T09:38:03.544Z,48.35
2023-01-19T09:40:31.849Z,41.47
2023-01-19T09:43:17.027Z,44.15
2023-01-19T09:45:56.985Z,31.35
2023-01-19T09:48:47.922Z,29.48
2023-01-19T09:51:36.309Z,32.55
2023-01-19T09:54:15.811Z,40.38
2023-01-19T09:56:44.648Z,38.00
2023-01-19T09:59:22.280Z,39.63
2023-01-19T10:02:00.881Z,29.38
2023-01-19T10:04:42.216Z,36.67
2023-01-19T10:07:12.655Z,35.08
2023-01-19T10:09:49.017Z,30.23
2023-01-19T10:12:31.417Z,37.88
2023-01-19T10:15:20.860Z,35.65
2023-01-19T10:17:58.087Z,40.80
2023-01-19T10:20:46.047Z,45.20
2023-01-19T10:23:39.470Z,51.08
2023-01-19T10:26:20.897Z,47.88
2023-01-19T10:28:51.340Z,50.50
2023-01-19T10:31:22.895Z,52.40
2023-01-19T10:33:50.909Z,52.63
2023-01-19T10:36:39.776Z,49.67
2023-01-19T10:39:07.967Z,41.00
2023-01-19T10:41:50.390Z,37.72
2023-01-19T10:44:25.290Z,39.17
2023-01-19T10:46:55.512Z,37.63
2023-01-19T10:51:58.003Z,42.75
2023-01-19T10:56:59.462Z,39.55
2023-01-19T10:59:36.017Z,42.00
2023-01-19T11:02:12.674Z,40.15
2023-01-19T11:04:42.183Z,40.17
2023-01-19T11:07:23.998Z,42.70
2023-01-19T11:10:11.251Z,45.30
2023-01-19T11:13:01.521Z,54.13
2023-01-19T11:15:43.171Z,46.47
2023-01-19T11:18:26.302Z,72.35
2023-01-19T11:20:56.597Z,68.50
2023-01-19T11:23:43.121Z,39.22
2023-01-19T11:26:16.925Z,36.58
2023-01-19T11:28:51.372Z,36.95
2023-01-19T11:31:31.278Z,33.50
2023-01-19T11:34:22.663Z,32.45
2023-01-19T11:37:05.393Z,34.55
2023-01-19T11:39:46.567Z,32.28
2023-01-19T11:42:15.468Z,32.40
2023-01-19T11:45:24.452Z,30.20
2023-01-19T11:47:54.688Z,36.35
2023-01-19T11:50:42.261Z,39.50
2023-01-19T11:53:29.276Z,35.40
2023-01-19T11:56:03.127Z,29.35
2023-01-19T11:58:33.379Z,26.45
2023-01-19T12:01:16.887Z,20.38
2023-01-19T12:03:46.542Z,19.50
2023-01-19T12:06:45.464Z,18.38
2023-01-19T12:09:23.102Z,16.40
2023-01-19T12:12:01.633Z,13.70
2023-01-19T12:15:01.520Z,17.60
2023-01-19T12:17:46.371Z,17.40
2023-01-19T12:20:32.862Z,17.25
2023-01-19T12:23:10.407Z,22.15
2023-01-19T12:25:53.939Z,20.52
2023-01-19T12:28:30.827Z,19.83
2023-01-19T12:31:01.198Z,14.95
2023-01-19T12:33:29.751Z,16.63
2023-01-19T12:36:04.049Z,17.25
2023-01-19T12:38:40.912Z,20.35
2023-01-19T12:41:25.697Z,20.60
2023-01-19T12:44:11.400Z,26.73
2023-01-19T12:46:43.482Z,24.98
2023-01-19T12:49:17.434Z,21.00
2023-01-19T12:51:45.932Z,18.42
2023-01-19T12:54:49.536Z,21.85
2023-01-19T12:57:25.146Z,21.58
2023-01-19T12:59:59.393Z,44.55
2023-01-19T13:02:26.967Z,34.63
2023-01-19T13:05:06.729Z,26.13
2023-01-19T13:08:01.803Z,24.33
2023-01-19T13:11:00.379Z,32.17
2023-01-19T13:13:36.827Z,61.35
2023-01-19T13:16:19.634Z,40.03
2023-01-19T13:19:13.428Z,40.20
2023-01-19T13:21:46.141Z,41.47
2023-01-19T13:24:20.868Z,53.50
2023-01-19T13:26:58.988Z,43.55
2023-01-19T13:29:33.845Z,71.80
2023-01-19T13:32:13.455Z,71.05
2023-01-19T13:34:44.123Z,54.08
2023-01-19T13:37:22.322Z,74.65
2023-01-19T13:39:53.403Z,45.65
2023-01-19T13:42:32.574Z,58.00
2023-01-19T13:45:17.117Z,57.17
2023-01-19T13:47:48.448Z,36.40
2023-01-19T13:50:19.854Z,32.85
2023-01-19T13:52:48.972Z,29.30
2023-01-19T13:55:16.355Z,31.67
2023-01-19T13:57:46.039Z,28.83
2023-01-19T14:00:14.460Z,34.00
2023-01-19T14:02:54.999Z,33.88
2023-01-19T14:05:25.732Z,33.58
2023-01-19T14:08:26.093Z,30.27
2023-01-19T14:11:05.255Z,32.45
2023-01-19T14:13:35.224Z,34.95
2023-01-19T14:16:12.551Z,32.65
2023-01-19T14:18:40.212Z,38.13
2023-01-19T14:21:13.237Z,38.75
2023-01-19T14:23:43.875Z,41.25
2023-01-19T14:26:39.266Z,46.25
2023-01-19T14:29:23.226Z,43.13
2023-01-19T14:31:53.309Z,46.45
2023-01-19T14:35:04.561Z,46.58
2023-01-19T14:37:35.097Z,64.20
2023-01-19T14:40:10.804Z,80.90
2023-01-19T14:43:00.039Z,58.35
2023-01-19T14:45:37.733Z,58.97
2023-01-19T14:48:19.704Z,60.78
2023-01-19T14:51:02.376Z,57.33
2023-01-19T14:53:36.823Z,61.20
2023-01-19T14:56:06.310Z,76.03
2023-01-19T14:58:35.349Z,113.13
2023-01-19T15:01:04.686Z,86.03
2023-01-19T15:03:44.354Z,69.90
2023-01-19T15:06:21.274Z,64.28
2023-01-19T15:08:50.228Z,62.78
2023-01-19T15:11:26.458Z,60.80
2023-01-19T15:13:55.421Z,92.05
2023-01-19T15:16:24.304Z,107.38
2023-01-19T15:18:51.682Z,91.13
2023-01-19T15:21:21.749Z,81.72
2023-01-19T15:26:22.186Z,61.85
2023-01-19T15:28:50.083Z,55.50
2023-01-19T15:31:26.043Z,51.10
2023-01-19T15:33:53.758Z,46.75
2023-01-19T15:36:22.403Z,49.15
2023-01-19T15:38:51.160Z,50.63
2023-01-19T15:41:29.986Z,48.40
2023-01-19T15:43:58.557Z,54.42
2023-01-19T15:46:26.798Z,53.25
2023-01-19T15:48:54.407Z,61.58
2023-01-19T15:51:27.432Z,64.78
2023-01-19T15:53:55.795Z,74.82
2023-01-19T15:56:31.331Z,71.85
2023-01-19T15:58:58.975Z,68.03
2023-01-19T16:01:32.764Z,68.45
2023-01-19T16:04:02.186Z,68.18
2023-01-19T16:06:31.221Z,73.45
2023-01-19T16:09:01.332Z,73.18
2023-01-19T16:11:34.225Z,77.43
2023-01-19T16:14:01.682Z,65.68
2023-01-19T16:16:29.692Z,65.47
2023-01-19T16:18:57.432Z,69.43
2023-01-19T16:21:25.385Z,65.18
2023-01-19T16:23:52.987Z,71.93
2023-01-19T16:26:35.089Z,75.03
2023-01-19T16:29:11.494Z,68.63
2023-01-19T16:31:41.772Z,59.40
2023-01-19T16:34:09.608Z,59.63
2023-01-19T16:36:40.515Z,57.70
2023-01-19T16:39:13.521Z,56.83
2023-01-19T16:41:42.395Z,54.10
2023-01-19T16:44:12.055Z,54.85
2023-01-19T16:46:41.954Z,66.57
2023-01-19T16:49:19.573Z,62.97
2023-01-19T16:51:48.113Z,62.58
2023-01-19T16:54:18.341Z,65.95
2023-01-19T16:56:46.597Z,60.90
2023-01-19T16:59:16.432Z,68.03
2023-01-19T17:01:45.815Z,64.97
2023-01-19T17:04:14.079Z,63.05
2023-01-19T17:06:41.992Z,68.75
2023-01-19T17:09:10.154Z,58.13
2023-01-19T17:11:37.923Z,58.08
2023-01-19T17:14:17.291Z,56.17
2023-01-19T17:19:19.176Z,59.33
2023-01-19T17:21:51.570Z,56.67
2023-01-19T17:24:19.175Z,70.50
2023-01-19T17:26:48.741Z,68.40
2023-01-19T17:29:16.821Z,81.35
2023-01-19T17:31:46.053Z,81.35
2023-01-19T17:34:13.742Z,91.15
2023-01-19T17:36:41.406Z,91.00
2023-01-19T17:39:11.562Z,93.07
2023-01-19T17:41:39.024Z,86.28
2023-01-19T17:44:07.188Z,90.93
2023-01-19T17:46:37.217Z,92.28
2023-01-19T17:49:07.009Z,88.20
2023-01-19T17:51:35.176Z,84.10
2023-01-19T17:54:02.366Z,88.05
2023-01-19T17:56:33.203Z,105.50
2023-01-19T17:59:00.627Z,119.72
2023-01-19T18:01:30.883Z,124.85
2023-01-19T18:03:58.867Z,135.38
2023-01-19T18:06:26.808Z,135.70
2023-01-19T18:08:54.202Z,121.32
2023-01-19T18:11:22.395Z,125.38
2023-01-19T18:13:50.737Z,105.68
2023-01-19T18:16:24.588Z,103.47
2023-01-19T18:18:56.132Z,90.95
2023-01-19T18:21:27.542Z,86.47
2023-01-19T18:24:01.206Z,84.15
2023-01-19T18:26:29.493Z,85.30
2023-01-19T18:28:57.355Z,88.95
2023-01-19T18:31:26.204Z,93.47
2023-01-19T18:33:53.707Z,90.40
2023-01-19T18:36:22.070Z,123.97
2023-01-19T18:38:50.123Z,120.85
2023-01-19T18:41:20.093Z,146.05
2023-01-19T18:43:48.357Z,136.02
2023-01-19T18:46:16.709Z,147.63
2023-01-19T18:48:44.484Z,150.90
2023-01-19T18:51:15.164Z,130.40
2023-01-19T18:53:43.934Z,130.15
2023-01-19T18:56:13.613Z,113.78
2023-01-19T19:01:26.453Z,121.80
2023-01-19T19:04:18.908Z,121.40
2023-01-19T19:06:46.403Z,122.18
2023-01-19T19:09:19.458Z,136.05
2023-01-19T19:11:54.967Z,139.07
2023-01-19T19:14:25.877Z,149.82
2023-01-19T19:16:53.900Z,157.73
2023-01-19T19:19:21.202Z,185.60
2023-01-19T19:21:49.140Z,194.65
2023-01-19T19:24:16.674Z,179.52
2023-01-19T19:26:44.736Z,168.75
2023-01-19T19:29:12.398Z,189.45
2023-01-19T19:31:40.209Z,182.43
2023-01-19T19:34:09.434Z,155.25
2023-01-19T19:36:37.275Z,157.95
2023-01-19T19:39:05.389Z,167.18
2023-01-19T19:41:33.526Z,177.80
2023-01-19T19:44:01.009Z,182.18
2023-01-19T19:46:28.881Z,204.02
2023-01-19T19:48:56.456Z,204.75
2023-01-19T19:51:28.416Z,218.70
2023-01-19T19:53:59.103Z,186.55
2023-01-19T19:56:29.893Z,207.70
2023-01-19T19:59:00.119Z,193.95
2023-01-19T20:01:32.882Z,296.63
2023-01-19T20:04:09.732Z,207.50
2023-01-19T20:06:40.962Z,196.10
2023-01-19T20:09:10.911Z,211.48
2023-01-19T20:11:43.626Z,184.55
2023-01-19T20:14:16.515Z,171.95
2023-01-19T20:16:45.488Z,168.23
2023-01-19T20:19:14.772Z,174.82
2023-01-19T20:21:43.506Z,181.18
2023-01-19T20:24:18.018Z,170.23
2023-01-19T20:26:49.391Z,148.32
2023-01-19T20:29:17.872Z,165.43
2023-01-19T20:31:53.614Z,153.40
2023-01-19T20:34:25.690Z,144.25
2023-01-19T20:36:56.009Z,134.73
2023-01-19T20:39:25.034Z,149.50
2023-01-19T20:42:13.944Z,155.50
2023-01-19T20:44:43.143Z,139.90
2023-01-19T20:47:11.444Z,119.50
2023-01-19T20:49:38.995Z,116.80
2023-01-19T20:52:06.945Z,112.28
2023-01-19T20:54:34.694Z,106.20
2023-01-19T20:57:02.689Z,107.22
2023-01-19T20:59:30.195Z,97.80
2023-01-19T21:01:57.912Z,82.35
2023-01-19T21:04:25.178Z,72.70
2023-01-19T21:06:52.725Z,75.60
2023-01-19T21:09:20.137Z,67.68
2023-01-19T21:11:47.665Z,60.78
2023-01-19T21:14:14.891Z,69.43
2023-01-19T21:16:42.720Z,65.63
2023-01-19T21:19:10.541Z,59.47
2023-01-19T21:21:38.382Z,63.95
2023-01-19T21:24:05.784Z,64.15
2023-01-19T21:26:33.768Z,57.25
2023-01-19T21:29:02.662Z,51.28
2023-01-19T21:31:31.385Z,57.03
2023-01-19T21:33:59.089Z,55.60
2023-01-19T21:36:27.127Z,51.22
2023-01-19T21:39:00.384Z,49.17
2023-01-19T21:41:30.141Z,52.45
2023-01-19T21:43:58.731Z,69.53
2023-01-19T21:46:29.778Z,55.78
2023-01-19T21:48:58.618Z,46.53
2023-01-19T21:51:26.949Z,40.38
2023-01-19T21:53:59.740Z,46.38
2023-01-19T21:56:28.826Z,48.08
2023-01-19T21:58:57.843Z,48.45
2023-01-19T22:03:57.420Z,50.00
2023-01-19T22:06:27.574Z,48.25
2023-01-19T22:08:55.908Z,74.75
2023-01-19T22:11:24.857Z,62.50
2023-01-19T22:13:52.396Z,51.22
2023-01-19T22:16:22.286Z,44.50
2023-01-19T22:18:59.695Z,40.80
2023-01-19T22:21:32.109Z,44.60
2023-01-19T22:24:00.949Z,49.53
2023-01-19T22:26:29.958Z,43.10
2023-01-19T22:29:00.167Z,44.83
2023-01-19T22:31:29.153Z,52.50
2023-01-19T22:33:57.408Z,46.37
2023-01-19T22:36:30.535Z,42.13
2023-01-19T22:39:00.034Z,35.35
2023-01-19T22:41:38.247Z,30.00
2023-01-19T22:44:08.687Z,27.73
2023-01-19T22:46:37.935Z,27.42
2023-01-19T22:49:07.633Z,25.60
2023-01-19T22:54:03.405Z,24.55
2023-01-19T22:56:32.667Z,23.23
2023-01-19T22:59:00.287Z,24.30
2023-01-19T23:01:31.422Z,26.48
2023-01-19T23:03:59.166Z,21.42
2023-01-19T23:06:29.179Z,24.55
2023-01-19T23:08:58.406Z,21.33
2023-01-19T23:11:35.856Z,23.17
2023-01-19T23:14:04.437Z,28.80
2023-01-19T23:16:31.870Z,26.10
2023-01-19T23:18:59.019Z,23.42
2023-01-19T23:21:29.059Z,26.98
2023-01-19T23:26:25.582Z,21.45
2023-01-19T23:28:55.840Z,24.27
2023-01-19T23:31:34.553Z,23.15
2023-01-19T23:34:05.179Z,23.55
2023-01-19T23:36:34.635Z,27.58
2023-01-19T23:39:22.513Z,27.20
2023-01-19T23:41:50.446Z,26.17
2023-01-19T23:44:18.271Z,27.63
2023-01-19T23:46:46.446Z,26.05
2023-01-19T23:49:13.824Z,27.35
2023-01-19T23:51:41.875Z,27.15
2023-01-19T23:54:09.558Z,24.48
2023-01-19T23:56:37.591Z,24.38
2023-01-19T23:59:07.377Z,29.05
